createdAt,value
2023-01-25T00:01:10.965Z,19.53
2023-01-25T00:04:13.884Z,19.52
2023-01-25T00:07:16.661Z,19.48
2023-01-25T00:10:19.876Z,19.42
2023-01-25T00:13:22.771Z,19.40
2023-01-25T00:16:27.179Z,19.34
2023-01-25T00:19:30.117Z,19.33
2023-01-25T00:22:34.707Z,19.27
2023-01-25T00:25:37.613Z,19.20
2023-01-25T00:28:40.692Z,19.12
2023-01-25T00:31:51.093Z,19.05
2023-01-25T00:34:53.976Z,18.99
2023-01-25T00:37:56.823Z,19.07
2023-01-25T00:40:59.939Z,18.94
2023-01-25T00:44:02.834Z,18.81
2023-01-25T00:47:07.181Z,18.79
2023-01-25T00:50:10.594Z,18.76
2023-01-25T00:53:13.439Z,18.72
2023-01-25T00:56:16.345Z,18.71
2023-01-25T00:59:19.177Z,18.70
2023-01-25T01:02:23.392Z,18.63
2023-01-25T01:05:27.600Z,18.61
2023-01-25T01:08:30.478Z,18.57
2023-01-25T01:11:33.571Z,18.55
2023-01-25T01:14:36.497Z,18.50
2023-01-25T01:17:40.700Z,18.47
2023-01-25T01:20:49.163Z,18.46
2023-01-25T01:23:52.001Z,18.43
2023-01-25T01:26:54.851Z,18.41
2023-01-25T01:29:57.637Z,18.39
2023-01-25T01:33:01.917Z,18.35
2023-01-25T01:36:08.120Z,18.32
2023-01-25T01:39:10.926Z,18.29
2023-01-25T01:42:13.808Z,18.28
2023-01-25T01:45:38.231Z,18.29
2023-01-25T01:48:45.136Z,18.25
2023-01-25T01:51:48.993Z,18.17
2023-01-25T01:54:56.074Z,18.15
2023-01-25T01:57:59.792Z,18.15
2023-01-25T02:01:02.713Z,18.11
2023-01-25T02:04:08.439Z,18.11
2023-01-25T02:07:14.803Z,18.08
2023-01-25T02:10:18.546Z,18.07
2023-01-25T02:13:21.665Z,18.07
2023-01-25T02:16:26.847Z,18.07
2023-01-25T02:19:36.732Z,18.04
2023-01-25T02:22:41.930Z,17.98
2023-01-25T02:25:46.201Z,17.97
2023-01-25T02:28:51.487Z,17.97
2023-01-25T02:32:00.470Z,17.98
2023-01-25T02:35:03.328Z,17.91
2023-01-25T02:38:07.352Z,17.92
2023-01-25T02:41:14.292Z,17.90
2023-01-25T02:44:18.034Z,17.89
2023-01-25T02:47:20.885Z,17.86
2023-01-25T02:50:23.741Z,17.87
2023-01-25T02:53:27.592Z,17.82
2023-01-25T02:56:31.835Z,17.79
2023-01-25T02:59:34.664Z,17.79
2023-01-25T03:02:37.724Z,17.75
2023-01-25T03:05:40.611Z,17.75
2023-01-25T03:08:43.729Z,17.74
2023-01-25T03:11:47.979Z,17.72
2023-01-25T03:14:50.837Z,17.66
2023-01-25T03:17:53.678Z,17.70
2023-01-25T03:20:56.663Z,17.70
2023-01-25T03:24:00.517Z,17.70
2023-01-25T03:27:14.543Z,17.63
2023-01-25T03:30:17.524Z,17.64
2023-01-25T03:33:20.363Z,17.76
2023-01-25T03:36:23.228Z,17.81
2023-01-25T03:39:26.090Z,17.86
2023-01-25T03:42:30.299Z,17.94
2023-01-25T03:45:33.087Z,18.01
2023-01-25T03:48:36.018Z,18.14
2023-01-25T03:51:38.899Z,18.22
2023-01-25T03:54:41.798Z,18.33
2023-01-25T03:57:49.160Z,18.36
2023-01-25T04:00:52.282Z,18.44
2023-01-25T04:03:55.165Z,18.47
2023-01-25T04:06:57.961Z,18.48
2023-01-25T04:10:00.835Z,18.56
2023-01-25T04:13:05.012Z,18.53
2023-01-25T04:16:08.586Z,18.57
2023-01-25T04:19:11.459Z,18.63
2023-01-25T04:22:14.372Z,18.58
2023-01-25T04:25:17.273Z,18.59
2023-01-25T04:28:21.508Z,18.66
2023-01-25T04:31:24.517Z,18.63
2023-01-25T04:34:27.452Z,18.71
2023-01-25T04:37:30.297Z,18.75
2023-01-25T04:40:33.201Z,18.77
2023-01-25T04:43:37.519Z,18.79
2023-01-25T04:46:40.300Z,18.82
2023-01-25T04:49:43.135Z,18.82
2023-01-25T04:52:46.038Z,18.87
2023-01-25T04:55:49.249Z,18.88
2023-01-25T04:58:53.501Z,18.87
2023-01-25T05:01:56.262Z,18.93
2023-01-25T05:04:59.075Z,18.87
2023-01-25T05:08:01.892Z,18.90
2023-01-25T05:11:04.847Z,18.95
2023-01-25T05:14:09.183Z,18.92
2023-01-25T05:17:11.949Z,18.96
2023-01-25T05:20:14.779Z,18.95
2023-01-25T05:23:17.625Z,18.95
2023-01-25T05:26:37.973Z,18.98
2023-01-25T05:29:42.926Z,18.97
2023-01-25T05:32:46.174Z,18.99
2023-01-25T05:35:49.015Z,18.99
2023-01-25T05:38:53.055Z,18.99
2023-01-25T05:41:55.903Z,19.03
2023-01-25T05:45:00.132Z,19.05
2023-01-25T05:48:02.994Z,18.98
2023-01-25T05:51:05.940Z,19.01
2023-01-25T05:54:09.394Z,18.96
2023-01-25T05:57:12.456Z,18.92
2023-01-25T06:00:17.338Z,18.88
2023-01-25T06:03:20.300Z,18.81
2023-01-25T06:06:23.619Z,18.77
2023-01-25T06:09:27.121Z,18.73
2023-01-25T06:12:30.367Z,18.72
2023-01-25T06:15:34.621Z,18.68
2023-01-25T06:18:37.851Z,18.66
2023-01-25T06:21:40.704Z,18.62
2023-01-25T06:24:43.683Z,18.57
2023-01-25T06:27:46.671Z,18.54
2023-01-25T06:30:51.472Z,18.49
2023-01-25T06:33:54.522Z,18.49
2023-01-25T06:36:57.433Z,18.47
2023-01-25T06:40:00.276Z,18.43
2023-01-25T06:43:07.418Z,18.34
2023-01-25T06:46:12.807Z,18.32
2023-01-25T06:49:15.715Z,18.28
2023-01-25T06:52:18.531Z,18.28
2023-01-25T06:55:21.755Z,18.21
2023-01-25T06:58:24.637Z,18.20
2023-01-25T07:01:30.577Z,18.16
2023-01-25T07:04:33.555Z,18.11
2023-01-25T07:07:36.738Z,18.09
2023-01-25T07:10:39.499Z,18.06
2023-01-25T07:13:43.183Z,18.01
2023-01-25T07:16:47.457Z,18.02
2023-01-25T07:19:50.220Z,17.98
2023-01-25T07:22:53.072Z,17.96
2023-01-25T07:25:58.266Z,17.94
2023-01-25T07:29:01.098Z,17.93
2023-01-25T07:32:06.756Z,17.92
2023-01-25T07:35:10.316Z,17.91
2023-01-25T07:38:14.729Z,17.89
2023-01-25T07:41:17.685Z,17.87
2023-01-25T07:44:20.496Z,17.82
2023-01-25T07:47:24.695Z,17.81
2023-01-25T07:50:27.571Z,17.79
2023-01-25T07:53:30.389Z,17.76
2023-01-25T07:56:34.317Z,17.73
2023-01-25T07:59:37.106Z,17.73
2023-01-25T08:02:41.568Z,17.70
2023-01-25T08:05:45.477Z,17.67
2023-01-25T08:08:49.589Z,17.64
2023-01-25T08:11:53.734Z,17.63
2023-01-25T08:14:56.591Z,17.67
2023-01-25T08:18:01.753Z,17.76
2023-01-25T08:21:04.721Z,17.85
2023-01-25T08:24:08.458Z,17.92
2023-01-25T08:27:11.350Z,17.98
2023-01-25T08:30:14.449Z,18.09
2023-01-25T08:33:18.751Z,18.22
2023-01-25T08:36:24.196Z,18.34
2023-01-25T08:39:27.383Z,18.33
2023-01-25T08:42:30.258Z,18.42
2023-01-25T08:45:37.189Z,18.48
2023-01-25T08:48:41.647Z,18.51
2023-01-25T08:51:44.574Z,18.57
2023-01-25T08:54:47.472Z,18.59
2023-01-25T08:57:50.490Z,18.63
2023-01-25T09:00:53.359Z,18.67
2023-01-25T09:03:57.703Z,18.70
2023-01-25T09:07:00.899Z,18.69
2023-01-25T09:10:03.751Z,18.71
2023-01-25T09:13:08.660Z,18.71
2023-01-25T09:16:12.446Z,18.73
2023-01-25T09:19:16.829Z,18.76
2023-01-25T09:22:19.744Z,18.75
2023-01-25T09:25:22.587Z,18.78
2023-01-25T09:28:25.478Z,18.84
2023-01-25T09:31:29.628Z,18.86
2023-01-25T09:34:33.966Z,18.86
2023-01-25T09:37:37.239Z,18.93
2023-01-25T09:40:40.435Z,18.94
2023-01-25T09:43:49.675Z,18.99
2023-01-25T09:46:54.377Z,19.00
2023-01-25T09:50:18.248Z,19.00
2023-01-25T09:53:24.407Z,19.04
2023-01-25T09:56:29.596Z,19.02
2023-01-25T09:59:32.588Z,19.07
2023-01-25T10:02:39.705Z,19.09
2023-01-25T10:05:45.235Z,19.09
2023-01-25T10:08:53.104Z,19.45
2023-01-25T10:11:55.943Z,19.47
2023-01-25T10:14:58.888Z,19.31
2023-01-25T10:18:05.352Z,19.22
2023-01-25T10:21:13.801Z,19.18
2023-01-25T10:24:37.426Z,19.13
2023-01-25T10:27:45.032Z,19.20
2023-01-25T10:30:52.448Z,19.20
2023-01-25T10:33:56.543Z,19.21
2023-01-25T10:37:03.477Z,19.23
2023-01-25T10:40:11.611Z,19.26
2023-01-25T10:43:18.178Z,19.20
2023-01-25T10:46:23.339Z,19.29
2023-01-25T10:49:28.760Z,19.29
2023-01-25T10:52:35.567Z,19.31
2023-01-25T10:55:38.395Z,19.33
2023-01-25T10:58:41.952Z,19.38
2023-01-25T11:01:44.975Z,19.61
2023-01-25T11:04:48.821Z,19.59
2023-01-25T11:07:53.430Z,19.56
2023-01-25T11:10:56.263Z,19.78
2023-01-25T11:13:59.299Z,19.61
2023-01-25T11:17:03.242Z,19.59
2023-01-25T11:20:08.654Z,19.55
2023-01-25T11:23:23.011Z,19.58
2023-01-25T11:26:25.874Z,19.62
2023-01-25T11:29:28.643Z,19.64
2023-01-25T11:32:31.718Z,19.69
2023-01-25T11:35:36.475Z,19.69
2023-01-25T11:38:45.646Z,19.70
2023-01-25T11:41:56.783Z,19.68
2023-01-25T11:45:29.730Z,19.78
2023-01-25T11:48:43.743Z,19.86
2023-01-25T11:51:53.374Z,19.75
2023-01-25T11:55:04.720Z,19.75
2023-01-25T11:58:23.275Z,19.73
2023-01-25T12:01:28.869Z,19.91
2023-01-25T12:05:06.367Z,19.88
2023-01-25T12:08:21.125Z,19.93
2023-01-25T12:11:33.210Z,19.86
2023-01-25T12:14:43.947Z,19.80
2023-01-25T12:17:53.851Z,19.82
2023-01-25T12:21:08.361Z,20.02
2023-01-25T12:24:18.359Z,20.07
2023-01-25T12:27:29.789Z,20.01
2023-01-25T12:30:38.830Z,19.99
2023-01-25T12:33:44.051Z,19.99
2023-01-25T12:36:48.036Z,20.03
2023-01-25T12:39:55.479Z,19.97
2023-01-25T12:43:01.615Z,19.96
2023-01-25T12:46:08.928Z,19.92
2023-01-25T12:49:16.748Z,19.94
2023-01-25T12:52:23.440Z,19.90
2023-01-25T12:55:26.428Z,19.85
2023-01-25T12:58:38.169Z,20.15
2023-01-25T13:01:46.327Z,20.59
2023-01-25T13:04:56.135Z,21.23
2023-01-25T13:08:04.775Z,21.10
2023-01-25T13:11:13.432Z,20.87
2023-01-25T13:14:36.548Z,20.17
2023-01-25T13:17:40.779Z,19.73
2023-01-25T13:20:49.547Z,19.67
2023-01-25T13:24:08.155Z,19.58
2023-01-25T13:27:26.153Z,19.58
2023-01-25T13:30:34.646Z,19.58
2023-01-25T13:33:37.708Z,19.59
2023-01-25T13:36:46.678Z,19.62
2023-01-25T13:39:51.296Z,19.87
2023-01-25T13:43:00.368Z,19.81
2023-01-25T13:46:05.917Z,19.90
2023-01-25T13:49:18.555Z,19.86
2023-01-25T13:52:22.780Z,20.04
2023-01-25T13:55:25.627Z,19.91
2023-01-25T13:58:29.659Z,19.97
2023-01-25T14:01:35.559Z,19.98
2023-01-25T14:04:38.401Z,19.98
2023-01-25T14:07:45.337Z,20.17
2023-01-25T14:10:49.039Z,20.33
2023-01-25T14:14:02.139Z,20.07
2023-01-25T14:17:14.313Z,20.17
2023-01-25T14:20:20.837Z,20.07
2023-01-25T14:23:24.670Z,20.05
2023-01-25T14:26:28.419Z,20.05
2023-01-25T14:29:33.149Z,20.00
2023-01-25T14:32:37.812Z,20.08
2023-01-25T14:35:42.698Z,20.03
2023-01-25T14:38:52.496Z,20.03
2023-01-25T14:42:01.304Z,20.10
2023-01-25T14:45:05.197Z,20.10
2023-01-25T14:48:22.931Z,20.04
2023-01-25T14:51:29.896Z,20.09
2023-01-25T14:54:33.845Z,20.07
2023-01-25T14:57:38.439Z,20.10
2023-01-25T15:00:41.203Z,20.10
2023-01-25T15:03:45.412Z,20.07
2023-01-25T15:06:51.093Z,20.17
2023-01-25T15:10:03.346Z,20.12
2023-01-25T15:13:20.365Z,20.08
2023-01-25T15:16:33.652Z,20.11
2023-01-25T15:19:37.234Z,20.11
2023-01-25T15:22:41.446Z,20.10
2023-01-25T15:25:54.301Z,20.12
2023-01-25T15:28:57.983Z,20.08
2023-01-25T15:32:01.074Z,20.09
2023-01-25T15:35:04.747Z,20.12
2023-01-25T15:38:12.047Z,20.09
2023-01-25T15:41:15.175Z,20.08
2023-01-25T15:44:20.214Z,20.09
2023-01-25T15:47:23.053Z,20.04
2023-01-25T15:50:26.132Z,20.06
2023-01-25T15:53:30.485Z,20.06
2023-01-25T15:56:33.959Z,20.03
2023-01-25T15:59:37.293Z,20.08
2023-01-25T16:02:40.256Z,20.11
2023-01-25T16:05:43.250Z,20.10
2023-01-25T16:08:47.491Z,20.16
2023-01-25T16:11:52.504Z,20.12
2023-01-25T16:14:55.303Z,20.13
2023-01-25T16:17:58.151Z,20.13
2023-01-25T16:21:00.976Z,20.14
2023-01-25T16:24:05.474Z,20.08
2023-01-25T16:27:12.923Z,20.10
2023-01-25T16:30:22.368Z,20.27
2023-01-25T16:33:26.644Z,19.69
2023-01-25T16:36:30.309Z,20.02
2023-01-25T16:39:34.552Z,20.10
2023-01-25T16:42:37.393Z,20.12
2023-01-25T16:45:40.323Z,20.17
2023-01-25T16:48:43.637Z,20.15
2023-01-25T16:51:46.549Z,20.20
2023-01-25T16:54:50.713Z,20.24
2023-01-25T16:57:53.574Z,20.13
2023-01-25T17:00:57.549Z,20.25
2023-01-25T17:04:00.397Z,20.18
2023-01-25T17:07:03.223Z,20.12
2023-01-25T17:10:08.590Z,20.09
2023-01-25T17:13:11.584Z,20.02
2023-01-25T17:16:14.586Z,20.01
2023-01-25T17:19:18.055Z,19.97
2023-01-25T17:22:20.866Z,19.91
2023-01-25T17:25:25.760Z,19.91
2023-01-25T17:31:33.728Z,19.82
2023-01-25T17:34:36.667Z,19.76
2023-01-25T17:37:41.212Z,19.72
2023-01-25T17:40:45.424Z,19.73
2023-01-25T17:43:51.457Z,19.70
2023-01-25T17:46:54.381Z,19.77
2023-01-25T17:49:57.217Z,19.68
2023-01-25T17:53:00.052Z,19.64
2023-01-25T17:56:05.607Z,19.65
2023-01-25T17:59:11.539Z,19.64
2023-01-25T18:02:14.661Z,19.57
2023-01-25T18:05:17.505Z,19.64
2023-01-25T18:08:20.515Z,19.67
2023-01-25T18:11:26.257Z,19.71
2023-01-25T18:14:30.656Z,19.77
2023-01-25T18:17:35.776Z,19.79
2023-01-25T18:20:38.625Z,19.85
2023-01-25T18:23:42.049Z,19.83
2023-01-25T18:26:47.003Z,19.92
2023-01-25T18:29:53.852Z,19.90
2023-01-25T18:32:56.931Z,19.97
2023-01-25T18:36:02.464Z,19.98
2023-01-25T18:39:06.948Z,20.08
2023-01-25T18:42:11.277Z,19.99
2023-01-25T18:45:14.429Z,20.01
2023-01-25T18:48:20.378Z,20.05
2023-01-25T18:51:23.364Z,20.02
2023-01-25T18:54:26.263Z,20.03
2023-01-25T18:57:30.413Z,20.02
2023-01-25T19:00:34.031Z,20.01
2023-01-25T19:03:37.230Z,19.98
2023-01-25T19:06:40.105Z,19.98
2023-01-25T19:09:43.848Z,20.02
2023-01-25T19:12:48.059Z,20.03
2023-01-25T19:15:50.891Z,20.05
2023-01-25T19:18:54.902Z,20.07
2023-01-25T19:21:57.753Z,20.04
2023-01-25T19:25:00.972Z,20.07
2023-01-25T19:28:05.138Z,20.12
2023-01-25T19:31:08.820Z,20.08
2023-01-25T19:34:13.009Z,20.10
2023-01-25T19:37:15.842Z,20.05
2023-01-25T19:40:20.499Z,20.02
2023-01-25T19:43:24.779Z,19.98
2023-01-25T19:46:30.213Z,19.96
2023-01-25T19:49:33.075Z,19.93
2023-01-25T19:52:36.204Z,19.87
2023-01-25T19:55:39.104Z,19.79
2023-01-25T19:58:43.353Z,19.69
2023-01-25T20:01:46.419Z,19.66
2023-01-25T20:04:49.263Z,19.60
2023-01-25T20:07:52.094Z,19.58
2023-01-25T20:10:58.475Z,19.52
2023-01-25T20:14:04.341Z,19.45
2023-01-25T20:17:07.353Z,19.45
2023-01-25T20:20:11.308Z,19.43
2023-01-25T20:23:14.489Z,19.40
2023-01-25T20:26:18.231Z,19.36
2023-01-25T20:29:23.992Z,19.36
2023-01-25T20:32:32.722Z,19.31
2023-01-25T20:35:36.212Z,19.25
2023-01-25T20:38:39.031Z,19.33
2023-01-25T20:41:41.921Z,19.19
2023-01-25T20:44:46.143Z,19.12
2023-01-25T20:47:49.015Z,19.09
2023-01-25T20:50:51.963Z,19.04
2023-01-25T20:53:55.112Z,18.96
2023-01-25T20:56:57.978Z,18.92
2023-01-25T21:00:02.215Z,18.90
2023-01-25T21:03:05.175Z,18.89
2023-01-25T21:06:08.379Z,18.87
2023-01-25T21:09:12.010Z,18.90
2023-01-25T21:12:15.587Z,18.99
2023-01-25T21:15:19.878Z,19.03
2023-01-25T21:18:22.878Z,19.04
2023-01-25T21:21:27.833Z,19.10
2023-01-25T21:24:30.662Z,19.25
2023-01-25T21:27:33.542Z,19.36
2023-01-25T21:30:37.844Z,19.41
2023-01-25T21:33:40.999Z,19.44
2023-01-25T21:36:43.831Z,19.50
2023-01-25T21:39:46.719Z,19.53
2023-01-25T21:42:49.570Z,19.53
2023-01-25T21:46:11.409Z,19.55
2023-01-25T21:49:32.019Z,19.53
2023-01-25T21:52:36.380Z,19.58
2023-01-25T21:55:39.392Z,19.59
2023-01-25T21:58:42.243Z,19.57
2023-01-25T22:01:46.649Z,19.63
2023-01-25T22:04:49.446Z,19.58
2023-01-25T22:07:52.201Z,19.60
2023-01-25T22:11:01.722Z,19.65
2023-01-25T22:14:04.753Z,19.63
2023-01-25T22:17:08.935Z,19.67
2023-01-25T22:20:12.689Z,19.73
2023-01-25T22:23:15.723Z,19.67
2023-01-25T22:26:19.176Z,19.75
2023-01-25T22:29:21.947Z,19.78
2023-01-25T22:32:26.206Z,19.75
2023-01-25T22:35:29.007Z,19.80
2023-01-25T22:38:31.894Z,19.76
2023-01-25T22:41:37.280Z,19.81
2023-01-25T22:44:40.107Z,19.81
2023-01-25T22:47:45.391Z,19.79
2023-01-25T22:50:48.247Z,19.81
2023-01-25T22:53:51.439Z,19.87
2023-01-25T22:56:54.246Z,19.81
2023-01-25T22:59:57.103Z,19.86
2023-01-25T23:03:01.341Z,19.86
2023-01-25T23:06:05.555Z,19.84
2023-01-25T23:09:08.434Z,19.83
2023-01-25T23:12:11.304Z,19.92
2023-01-25T23:15:15.840Z,19.86
2023-01-25T23:18:37.351Z,19.91
2023-01-25T23:21:41.295Z,19.86
2023-01-25T23:24:44.679Z,19.89
2023-01-25T23:27:47.799Z,19.89
2023-01-25T23:30:50.938Z,19.89
2023-01-25T23:33:55.847Z,19.85
2023-01-25T23:36:58.629Z,19.91
2023-01-25T23:40:01.427Z,19.93
2023-01-25T23:43:04.307Z,19.95
2023-01-25T23:46:07.745Z,19.94
2023-01-25T23:49:12.047Z,19.89
2023-01-25T23:52:14.928Z,19.95
2023-01-25T23:55:17.834Z,19.93
2023-01-25T23:58:20.777Z,19.89
